sensor_id;sensor_type;location;lat;lon;timestamp;P1;P2;P0
69736;PMS5003;60097;55.004;73.344;2022-09-12T00:02:43;23.70;2.53;
69736;PMS5003;60097;55.004;73.344;2022-09-12T00:05:20;2.72;2.00;
69736;PMS5003;60097;55.004;73.344;2022-09-12T00:07:54;8.73;2.10;
69736;PMS5003;60097;55.004;73.344;2022-09-12T00:12:54;8.75;2.53;
69736;PMS5003;60097;55.004;73.344;2022-09-12T00:15:30;5.97;2.58;
69736;PMS5003;60097;55.004;73.344;2022-09-12T00:17:57;13.33;2.27;
69736;PMS5003;60097;55.004;73.344;2022-09-12T00:20:28;5.97;2.83;
69736;PMS5003;60097;55.004;73.344;2022-09-12T00:22:55;4.82;2.13;
69736;PMS5003;60097;55.004;73.344;2022-09-12T00:25:22;8.82;1.92;
69736;PMS5003;60097;55.004;73.344;2022-09-12T00:27:59;6.54;2.26;
69736;PMS5003;60097;55.004;73.344;2022-09-12T00:30:39;9.02;2.67;
69736;PMS5003;60097;55.004;73.344;2022-09-12T00:33:10;8.75;2.60;
69736;PMS5003;60097;55.004;73.344;2022-09-12T00:35:48;14.57;2.55;
69736;PMS5003;60097;55.004;73.344;2022-09-12T00:38:22;4.70;1.77;
69736;PMS5003;60097;55.004;73.344;2022-09-12T00:40:59;8.23;1.80;
69736;PMS5003;60097;55.004;73.344;2022-09-12T00:54:51;6.22;2.10;
69736;PMS5003;60097;55.004;73.344;2022-09-12T00:58:26;8.27;2.10;
69736;PMS5003;60097;55.004;73.344;2022-09-12T01:01:00;6.57;2.35;
69736;PMS5003;60097;55.004;73.344;2022-09-12T01:03:26;2.83;1.90;
69736;PMS5003;60097;55.004;73.344;2022-09-12T01:06:11;2.63;1.75;
69736;PMS5003;60097;55.004;73.344;2022-09-12T01:09:19;18.13;2.10;
69736;PMS5003;60097;55.004;73.344;2022-09-12T01:11:47;23.15;2.40;
69736;PMS5003;60097;55.004;73.344;2022-09-12T01:14:14;17.83;2.47;
69736;PMS5003;60097;55.004;73.344;2022-09-12T01:16:42;9.23;2.42;
69736;PMS5003;60097;55.004;73.344;2022-09-12T01:38:34;21.87;3.17;
69736;PMS5003;60097;55.004;73.344;2022-09-12T01:41:10;20.77;4.05;
69736;PMS5003;60097;55.004;73.344;2022-09-12T01:43:48;4.72;3.00;
69736;PMS5003;60097;55.004;73.344;2022-09-12T01:52:25;4.97;2.70;
69736;PMS5003;60097;55.004;73.344;2022-09-12T01:55:04;2.37;2.17;
69736;PMS5003;60097;55.004;73.344;2022-09-12T02:03:47;7.90;2.08;
69736;PMS5003;60097;55.004;73.344;2022-09-12T02:06:21;2.60;2.08;
69736;PMS5003;60097;55.004;73.344;2022-09-12T02:12:23;12.90;4.03;
69736;PMS5003;60097;55.004;73.344;2022-09-12T02:15:29;12.27;4.88;
69736;PMS5003;60097;55.004;73.344;2022-09-12T02:18:12;9.90;6.95;
69736;PMS5003;60097;55.004;73.344;2022-09-12T02:20:47;3.47;2.97;
69736;PMS5003;60097;55.004;73.344;2022-09-12T02:23:17;11.23;6.28;
69736;PMS5003;60097;55.004;73.344;2022-09-12T02:26:01;13.57;4.05;
69736;PMS5003;60097;55.004;73.344;2022-09-12T02:28:41;20.95;4.15;
69736;PMS5003;60097;55.004;73.344;2022-09-12T02:39:31;23.23;13.25;
69736;PMS5003;60097;55.004;73.344;2022-09-12T02:42:07;24.23;11.75;
69736;PMS5003;60097;55.004;73.344;2022-09-12T02:44:45;16.67;3.80;
69736;PMS5003;60097;55.004;73.344;2022-09-12T02:47:14;10.43;3.17;
69736;PMS5003;60097;55.004;73.344;2022-09-12T02:49:50;12.95;3.55;
69736;PMS5003;60097;55.004;73.344;2022-09-12T02:52:18;15.52;3.67;
69736;PMS5003;60097;55.004;73.344;2022-09-12T02:54:46;4.93;2.88;
69736;PMS5003;60097;55.004;73.344;2022-09-12T02:57:16;16.73;4.07;
69736;PMS5003;60097;55.004;73.344;2022-09-12T02:59:47;14.40;10.00;
69736;PMS5003;60097;55.004;73.344;2022-09-12T03:02:30;10.43;6.00;
69736;PMS5003;60097;55.004;73.344;2022-09-12T03:05:37;19.42;8.35;
69736;PMS5003;60097;55.004;73.344;2022-09-12T03:08:19;13.10;7.38;
69736;PMS5003;60097;55.004;73.344;2022-09-12T03:11:03;20.17;3.50;
69736;PMS5003;60097;55.004;73.344;2022-09-12T03:17:04;30.58;5.00;
69736;PMS5003;60097;55.004;73.344;2022-09-12T03:25:47;2.03;1.92;
69736;PMS5003;60097;55.004;73.344;2022-09-12T03:28:34;4.75;3.20;
69736;PMS5003;60097;55.004;73.344;2022-09-12T03:31:10;6.55;4.50;
69736;PMS5003;60097;55.004;73.344;2022-09-12T03:34:13;11.43;2.50;
69736;PMS5003;60097;55.004;73.344;2022-09-12T03:36:39;15.48;2.38;
69736;PMS5003;60097;55.004;73.344;2022-09-12T03:39:06;9.40;2.10;
69736;PMS5003;60097;55.004;73.344;2022-09-12T03:41:32;13.45;2.30;
69736;PMS5003;60097;55.004;73.344;2022-09-12T03:43:59;7.55;1.88;
69736;PMS5003;60097;55.004;73.344;2022-09-12T03:46:30;8.98;1.90;
69736;PMS5003;60097;55.004;73.344;2022-09-12T03:48:57;3.03;1.98;
69736;PMS5003;60097;55.004;73.344;2022-09-12T03:51:26;4.57;1.88;
69736;PMS5003;60097;55.004;73.344;2022-09-12T03:53:58;21.55;2.20;
69736;PMS5003;60097;55.004;73.344;2022-09-12T03:56:30;8.10;4.72;
69736;PMS5003;60097;55.004;73.344;2022-09-12T03:58:56;10.05;2.08;
69736;PMS5003;60097;55.004;73.344;2022-09-12T04:01:23;36.90;3.00;
69736;PMS5003;60097;55.004;73.344;2022-09-12T04:03:50;13.80;1.92;
69736;PMS5003;60097;55.004;73.344;2022-09-12T04:06:22;13.98;2.00;
69736;PMS5003;60097;55.004;73.344;2022-09-12T04:08:50;11.57;3.10;
69736;PMS5003;60097;55.004;73.344;2022-09-12T04:11:18;6.65;5.28;
69736;PMS5003;60097;55.004;73.344;2022-09-12T04:13:47;32.58;2.67;
69736;PMS5003;60097;55.004;73.344;2022-09-12T04:16:15;2.83;2.60;
69736;PMS5003;60097;55.004;73.344;2022-09-12T04:18:47;5.63;4.78;
69736;PMS5003;60097;55.004;73.344;2022-09-12T04:21:16;7.32;1.52;
69736;PMS5003;60097;55.004;73.344;2022-09-12T04:23:43;5.05;1.42;
69736;PMS5003;60097;55.004;73.344;2022-09-12T04:26:10;6.40;1.88;
69736;PMS5003;60097;55.004;73.344;2022-09-12T04:28:38;6.05;1.40;
69736;PMS5003;60097;55.004;73.344;2022-09-12T04:31:07;11.05;1.55;
69736;PMS5003;60097;55.004;73.344;2022-09-12T04:36:24;3.40;1.38;
69736;PMS5003;60097;55.004;73.344;2022-09-12T04:39:05;12.25;1.77;
69736;PMS5003;60097;55.004;73.344;2022-09-12T04:41:36;7.22;3.42;
69736;PMS5003;60097;55.004;73.344;2022-09-12T04:44:06;2.30;1.50;
69736;PMS5003;60097;55.004;73.344;2022-09-12T04:46:40;15.95;1.73;
69736;PMS5003;60097;55.004;73.344;2022-09-12T04:49:24;11.23;1.88;
69736;PMS5003;60097;55.004;73.344;2022-09-12T04:51:51;6.07;1.33;
69736;PMS5003;60097;55.004;73.344;2022-09-12T04:54:59;2.28;1.52;
69736;PMS5003;60097;55.004;73.344;2022-09-12T04:57:25;2.88;1.50;
69736;PMS5003;60097;55.004;73.344;2022-09-12T04:59:52;6.32;1.42;
69736;PMS5003;60097;55.004;73.344;2022-09-12T05:02:19;1.88;0.98;
69736;PMS5003;60097;55.004;73.344;2022-09-12T05:04:50;11.43;1.35;
69736;PMS5003;60097;55.004;73.344;2022-09-12T05:07:17;3.33;1.30;
69736;PMS5003;60097;55.004;73.344;2022-09-12T05:09:44;3.15;1.38;
69736;PMS5003;60097;55.004;73.344;2022-09-12T05:12:10;1.20;1.10;
69736;PMS5003;60097;55.004;73.344;2022-09-12T05:14:44;1.23;1.10;
69736;PMS5003;60097;55.004;73.344;2022-09-12T05:17:10;3.40;1.50;
69736;PMS5003;60097;55.004;73.344;2022-09-12T05:19:37;4.93;1.17;
69736;PMS5003;60097;55.004;73.344;2022-09-12T05:22:04;5.95;1.38;
69736;PMS5003;60097;55.004;73.344;2022-09-12T05:24:31;3.80;1.00;
69736;PMS5003;60097;55.004;73.344;2022-09-12T05:26:58;15.25;1.55;
69736;PMS5003;60097;55.004;73.344;2022-09-12T05:29:24;4.22;1.13;
69736;PMS5003;60097;55.004;73.344;2022-09-12T05:31:53;13.90;2.93;
69736;PMS5003;60097;55.004;73.344;2022-09-12T05:34:20;8.20;1.48;
69736;PMS5003;60097;55.004;73.344;2022-09-12T05:36:47;1.08;0.98;
69736;PMS5003;60097;55.004;73.344;2022-09-12T05:39:14;2.70;1.60;
69736;PMS5003;60097;55.004;73.344;2022-09-12T05:41:40;3.15;1.83;
69736;PMS5003;60097;55.004;73.344;2022-09-12T05:44:09;2.60;1.30;
69736;PMS5003;60097;55.004;73.344;2022-09-12T05:46:38;10.13;2.33;
69736;PMS5003;60097;55.004;73.344;2022-09-12T05:49:07;2.30;1.40;
69736;PMS5003;60097;55.004;73.344;2022-09-12T05:51:35;7.72;3.00;
69736;PMS5003;60097;55.004;73.344;2022-09-12T05:54:04;15.15;8.27;
69736;PMS5003;60097;55.004;73.344;2022-09-12T05:56:38;40.25;27.33;
69736;PMS5003;60097;55.004;73.344;2022-09-12T05:59:12;1.00;0.90;
69736;PMS5003;60097;55.004;73.344;2022-09-12T06:01:40;3.35;1.48;
69736;PMS5003;60097;55.004;73.344;2022-09-12T06:04:08;3.92;1.20;
69736;PMS5003;60097;55.004;73.344;2022-09-12T06:06:36;6.80;1.63;
69736;PMS5003;60097;55.004;73.344;2022-09-12T06:09:10;7.85;1.23;
69736;PMS5003;60097;55.004;73.344;2022-09-12T06:11:37;54.90;3.45;
69736;PMS5003;60097;55.004;73.344;2022-09-12T06:14:06;359.45;16.80;
69736;PMS5003;60097;55.004;73.344;2022-09-12T06:20:05;11.98;3.00;
69736;PMS5003;60097;55.004;73.344;2022-09-12T06:22:55;5.28;1.38;
69736;PMS5003;60097;55.004;73.344;2022-09-12T06:25:25;20.40;3.17;
69736;PMS5003;60097;55.004;73.344;2022-09-12T06:27:53;30.92;2.03;
69736;PMS5003;60097;55.004;73.344;2022-09-12T06:30:30;9.10;1.60;
69736;PMS5003;60097;55.004;73.344;2022-09-12T06:32:57;14.10;1.63;
69736;PMS5003;60097;55.004;73.344;2022-09-12T06:35:34;8.73;1.90;
69736;PMS5003;60097;55.004;73.344;2022-09-12T06:38:01;1.10;0.97;
69736;PMS5003;60097;55.004;73.344;2022-09-12T06:40:42;3.17;1.40;
69736;PMS5003;60097;55.004;73.344;2022-09-12T06:43:15;4.40;1.73;
69736;PMS5003;60097;55.004;73.344;2022-09-12T06:48:40;4.05;1.52;
69736;PMS5003;60097;55.004;73.344;2022-09-12T06:51:11;1.98;0.93;
69736;PMS5003;60097;55.004;73.344;2022-09-12T06:53:39;5.47;2.50;
69736;PMS5003;60097;55.004;73.344;2022-09-12T06:56:20;6.30;1.65;
69736;PMS5003;60097;55.004;73.344;2022-09-12T06:58:48;8.32;1.77;
69736;PMS5003;60097;55.004;73.344;2022-09-12T07:04:15;12.57;1.60;
69736;PMS5003;60097;55.004;73.344;2022-09-12T07:06:42;4.20;3.85;
69736;PMS5003;60097;55.004;73.344;2022-09-12T07:09:10;7.38;1.40;
69736;PMS5003;60097;55.004;73.344;2022-09-12T07:11:39;5.05;1.10;
69736;PMS5003;60097;55.004;73.344;2022-09-12T07:14:07;3.92;1.42;
69736;PMS5003;60097;55.004;73.344;2022-09-12T07:16:35;2.45;1.42;
69736;PMS5003;60097;55.004;73.344;2022-09-12T07:19:07;3.92;1.30;
69736;PMS5003;60097;55.004;73.344;2022-09-12T07:21:35;2.35;1.52;
69736;PMS5003;60097;55.004;73.344;2022-09-12T07:24:09;3.33;1.15;
69736;PMS5003;60097;55.004;73.344;2022-09-12T07:26:36;1.30;0.85;
69736;PMS5003;60097;55.004;73.344;2022-09-12T07:29:08;4.50;0.77;
69736;PMS5003;60097;55.004;73.344;2022-09-12T07:31:44;0.98;0.90;
69736;PMS5003;60097;55.004;73.344;2022-09-12T07:34:10;3.13;1.83;
69736;PMS5003;60097;55.004;73.344;2022-09-12T07:36:37;1.60;1.50;
69736;PMS5003;60097;55.004;73.344;2022-09-12T07:39:04;9.60;1.88;
69736;PMS5003;60097;55.004;73.344;2022-09-12T07:42:01;6.35;1.40;
69736;PMS5003;60097;55.004;73.344;2022-09-12T07:44:29;4.50;1.40;
69736;PMS5003;60097;55.004;73.344;2022-09-12T07:46:55;1.98;1.35;
69736;PMS5003;60097;55.004;73.344;2022-09-12T07:49:25;6.72;2.05;
69736;PMS5003;60097;55.004;73.344;2022-09-12T07:51:52;4.63;1.25;
69736;PMS5003;60097;55.004;73.344;2022-09-12T07:54:18;1.63;1.17;
69736;PMS5003;60097;55.004;73.344;2022-09-12T07:56:46;6.13;2.20;
69736;PMS5003;60097;55.004;73.344;2022-09-12T07:59:13;5.93;2.47;
69736;PMS5003;60097;55.004;73.344;2022-09-12T08:01:39;2.85;1.30;
69736;PMS5003;60097;55.004;73.344;2022-09-12T08:04:06;2.00;1.13;
69736;PMS5003;60097;55.004;73.344;2022-09-12T08:06:33;1.50;1.30;
69736;PMS5003;60097;55.004;73.344;2022-09-12T08:09:01;9.00;2.15;
69736;PMS5003;60097;55.004;73.344;2022-09-12T08:11:29;8.50;1.50;
69736;PMS5003;60097;55.004;73.344;2022-09-12T08:13:56;2.70;1.50;
69736;PMS5003;60097;55.004;73.344;2022-09-12T08:16:24;7.00;2.10;
69736;PMS5003;60097;55.004;73.344;2022-09-12T08:18:53;3.65;2.58;
69736;PMS5003;60097;55.004;73.344;2022-09-12T08:21:31;9.05;1.92;
69736;PMS5003;60097;55.004;73.344;2022-09-12T08:23:59;18.83;6.30;
69736;PMS5003;60097;55.004;73.344;2022-09-12T08:26:30;5.25;1.80;
69736;PMS5003;60097;55.004;73.344;2022-09-12T08:28:57;16.40;14.80;
69736;PMS5003;60097;55.004;73.344;2022-09-12T08:31:28;28.08;4.05;
69736;PMS5003;60097;55.004;73.344;2022-09-12T08:34:01;6.13;1.90;
69736;PMS5003;60097;55.004;73.344;2022-09-12T08:36:30;16.48;3.28;
69736;PMS5003;60097;55.004;73.344;2022-09-12T08:38:58;8.20;2.60;
69736;PMS5003;60097;55.004;73.344;2022-09-12T08:52:38;6.30;2.80;
69736;PMS5003;60097;55.004;73.344;2022-09-12T08:55:42;7.97;1.58;
69736;PMS5003;60097;55.004;73.344;2022-09-12T08:58:14;12.23;1.70;
69736;PMS5003;60097;55.004;73.344;2022-09-12T09:12:06;7.50;2.00;
69736;PMS5003;60097;55.004;73.344;2022-09-12T09:17:43;33.25;5.30;
69736;PMS5003;60097;55.004;73.344;2022-09-12T09:20:18;9.05;2.42;
69736;PMS5003;60097;55.004;73.344;2022-09-12T09:28:22;24.95;3.35;
69736;PMS5003;60097;55.004;73.344;2022-09-12T09:30:52;10.93;3.13;
69736;PMS5003;60097;55.004;73.344;2022-09-12T09:33:22;28.40;4.70;
69736;PMS5003;60097;55.004;73.344;2022-09-12T09:39:03;9.90;2.25;
69736;PMS5003;60097;55.004;73.344;2022-09-12T09:41:41;11.50;3.13;
69736;PMS5003;60097;55.004;73.344;2022-09-12T09:44:20;23.33;2.58;
69736;PMS5003;60097;55.004;73.344;2022-09-12T09:46:59;16.02;3.15;
69736;PMS5003;60097;55.004;73.344;2022-09-12T09:49:33;21.83;3.88;
69736;PMS5003;60097;55.004;73.344;2022-09-12T09:52:00;26.05;4.15;
69736;PMS5003;60097;55.004;73.344;2022-09-12T09:54:48;15.70;5.88;
69736;PMS5003;60097;55.004;73.344;2022-09-12T10:08:18;40.97;5.55;
69736;PMS5003;60097;55.004;73.344;2022-09-12T10:10:56;43.35;6.47;
69736;PMS5003;60097;55.004;73.344;2022-09-12T10:13:37;28.60;5.85;
69736;PMS5003;60097;55.004;73.344;2022-09-12T10:16:23;43.03;5.88;
69736;PMS5003;60097;55.004;73.344;2022-09-12T10:18:51;40.70;6.53;
69736;PMS5003;60097;55.004;73.344;2022-09-12T10:21:23;47.08;6.47;
69736;PMS5003;60097;55.004;73.344;2022-09-12T10:24:36;40.72;6.13;
69736;PMS5003;60097;55.004;73.344;2022-09-12T10:29:42;32.65;4.28;
69736;PMS5003;60097;55.004;73.344;2022-09-12T10:32:11;15.57;3.67;
69736;PMS5003;60097;55.004;73.344;2022-09-12T10:34:45;12.77;2.53;
69736;PMS5003;60097;55.004;73.344;2022-09-12T10:45:30;14.00;2.90;
69736;PMS5003;60097;55.004;73.344;2022-09-12T10:53:56;10.63;3.38;
69736;PMS5003;60097;55.004;73.344;2022-09-12T10:56:29;48.88;3.40;
69736;PMS5003;60097;55.004;73.344;2022-09-12T11:01:40;13.02;3.40;
69736;PMS5003;60097;55.004;73.344;2022-09-12T11:07:25;18.75;3.65;
69736;PMS5003;60097;55.004;73.344;2022-09-12T11:16:03;11.27;3.47;
69736;PMS5003;60097;55.004;73.344;2022-09-12T11:18:52;14.98;4.38;
69736;PMS5003;60097;55.004;73.344;2022-09-12T11:22:18;21.00;4.43;
69736;PMS5003;60097;55.004;73.344;2022-09-12T11:31:02;21.25;3.50;
69736;PMS5003;60097;55.004;73.344;2022-09-12T11:39:42;12.50;3.20;
69736;PMS5003;60097;55.004;73.344;2022-09-12T11:42:15;7.72;3.00;
69736;PMS5003;60097;55.004;73.344;2022-09-12T11:44:46;24.75;11.13;
69736;PMS5003;60097;55.004;73.344;2022-09-12T11:47:17;14.18;2.75;
69736;PMS5003;60097;55.004;73.344;2022-09-12T11:49:46;13.52;2.30;
69736;PMS5003;60097;55.004;73.344;2022-09-12T11:52:16;10.88;2.40;
69736;PMS5003;60097;55.004;73.344;2022-09-12T11:57:57;5.70;2.40;
69736;PMS5003;60097;55.004;73.344;2022-09-12T12:00:29;9.00;2.20;
69736;PMS5003;60097;55.004;73.344;2022-09-12T12:03:15;22.25;4.43;
69736;PMS5003;60097;55.004;73.344;2022-09-12T12:08:22;51.22;5.00;
69736;PMS5003;60097;55.004;73.344;2022-09-12T12:10:53;41.67;5.88;
69736;PMS5003;60097;55.004;73.344;2022-09-12T12:16:12;30.98;5.03;
69736;PMS5003;60097;55.004;73.344;2022-09-12T12:18:41;24.27;4.63;
69736;PMS5003;60097;55.004;73.344;2022-09-12T12:21:18;23.48;4.88;
69736;PMS5003;60097;55.004;73.344;2022-09-12T12:24:02;25.67;4.38;
69736;PMS5003;60097;55.004;73.344;2022-09-12T12:26:42;65.75;6.68;
69736;PMS5003;60097;55.004;73.344;2022-09-12T12:36:56;27.80;5.90;
69736;PMS5003;60097;55.004;73.344;2022-09-12T12:48:00;14.07;3.93;
69736;PMS5003;60097;55.004;73.344;2022-09-12T12:51:38;16.95;4.57;
69736;PMS5003;60097;55.004;73.344;2022-09-12T12:57:39;21.52;4.38;
69736;PMS5003;60097;55.004;73.344;2022-09-12T13:03:26;24.88;4.80;
69736;PMS5003;60097;55.004;73.344;2022-09-12T13:06:04;31.60;5.25;
69736;PMS5003;60097;55.004;73.344;2022-09-12T13:08:32;30.52;5.93;
69736;PMS5003;60097;55.004;73.344;2022-09-12T13:11:03;42.55;5.47;
69736;PMS5003;60097;55.004;73.344;2022-09-12T13:13:39;26.30;6.40;
69736;PMS5003;60097;55.004;73.344;2022-09-12T13:16:11;28.70;5.00;
69736;PMS5003;60097;55.004;73.344;2022-09-12T13:19:03;26.75;5.47;
69736;PMS5003;60097;55.004;73.344;2022-09-12T13:21:37;34.70;5.45;
69736;PMS5003;60097;55.004;73.344;2022-09-12T13:24:10;26.52;5.22;
69736;PMS5003;60097;55.004;73.344;2022-09-12T13:30:14;25.65;5.43;
69736;PMS5003;60097;55.004;73.344;2022-09-12T13:32:41;41.50;6.68;
69736;PMS5003;60097;55.004;73.344;2022-09-12T13:37:47;30.38;6.95;
69736;PMS5003;60097;55.004;73.344;2022-09-12T13:40:44;28.77;7.50;
69736;PMS5003;60097;55.004;73.344;2022-09-12T13:43:34;26.83;8.43;
69736;PMS5003;60097;55.004;73.344;2022-09-12T13:46:02;68.07;17.38;
69736;PMS5003;60097;55.004;73.344;2022-09-12T13:48:29;52.08;15.88;
69736;PMS5003;60097;55.004;73.344;2022-09-12T13:50:57;44.10;13.65;
69736;PMS5003;60097;55.004;73.344;2022-09-12T13:53:26;43.67;13.85;
69736;PMS5003;60097;55.004;73.344;2022-09-12T13:56:30;46.28;12.77;
69736;PMS5003;60097;55.004;73.344;2022-09-12T13:58:58;31.48;10.55;
69736;PMS5003;60097;55.004;73.344;2022-09-12T14:04:34;78.85;15.75;
69736;PMS5003;60097;55.004;73.344;2022-09-12T14:07:28;53.63;11.43;
69736;PMS5003;60097;55.004;73.344;2022-09-12T14:09:59;24.35;9.82;
69736;PMS5003;60097;55.004;73.344;2022-09-12T14:12:38;34.10;9.40;
69736;PMS5003;60097;55.004;73.344;2022-09-12T14:18:24;33.55;10.85;
69736;PMS5003;60097;55.004;73.344;2022-09-12T14:21:08;33.60;9.70;
69736;PMS5003;60097;55.004;73.344;2022-09-12T14:23:48;38.53;9.60;
69736;PMS5003;60097;55.004;73.344;2022-09-12T14:26:15;40.83;8.82;
69736;PMS5003;60097;55.004;73.344;2022-09-12T14:28:45;48.72;8.98;
69736;PMS5003;60097;55.004;73.344;2022-09-12T14:31:24;43.22;9.52;
69736;PMS5003;60097;55.004;73.344;2022-09-12T14:34:11;88.00;21.95;
69736;PMS5003;60097;55.004;73.344;2022-09-12T14:36:43;136.23;52.08;
69736;PMS5003;60097;55.004;73.344;2022-09-12T14:39:31;159.50;54.67;
69736;PMS5003;60097;55.004;73.344;2022-09-12T14:41:59;188.75;67.50;
69736;PMS5003;60097;55.004;73.344;2022-09-12T14:44:29;141.30;56.42;
69736;PMS5003;60097;55.004;73.344;2022-09-12T14:47:09;129.88;56.83;
69736;PMS5003;60097;55.004;73.344;2022-09-12T14:49:40;116.85;46.97;
69736;PMS5003;60097;55.004;73.344;2022-09-12T14:52:22;100.78;46.83;
69736;PMS5003;60097;55.004;73.344;2022-09-12T14:55:49;164.93;63.72;
69736;PMS5003;60097;55.004;73.344;2022-09-12T14:58:15;175.98;75.47;
69736;PMS5003;60097;55.004;73.344;2022-09-12T15:01:22;162.00;77.35;
69736;PMS5003;60097;55.004;73.344;2022-09-12T15:03:58;162.23;64.88;
69736;PMS5003;60097;55.004;73.344;2022-09-12T15:11:30;168.50;74.97;
69736;PMS5003;60097;55.004;73.344;2022-09-12T15:14:05;167.30;70.70;
69736;PMS5003;60097;55.004;73.344;2022-09-12T15:16:37;178.93;76.43;
69736;PMS5003;60097;55.004;73.344;2022-09-12T15:19:04;152.10;74.13;
69736;PMS5003;60097;55.004;73.344;2022-09-12T15:21:31;140.15;64.18;
69736;PMS5003;60097;55.004;73.344;2022-09-12T15:23:57;140.65;55.53;
69736;PMS5003;60097;55.004;73.344;2022-09-12T15:26:24;131.52;60.60;
69736;PMS5003;60097;55.004;73.344;2022-09-12T15:28:55;175.40;86.82;
69736;PMS5003;60097;55.004;73.344;2022-09-12T15:31:33;134.35;68.28;
69736;PMS5003;60097;55.004;73.344;2022-09-12T15:34:00;116.35;49.42;
69736;PMS5003;60097;55.004;73.344;2022-09-12T15:36:27;96.10;44.88;
69736;PMS5003;60097;55.004;73.344;2022-09-12T15:38:54;91.57;43.85;
69736;PMS5003;60097;55.004;73.344;2022-09-12T15:41:28;116.00;45.85;
69736;PMS5003;60097;55.004;73.344;2022-09-12T15:43:55;108.75;44.55;
69736;PMS5003;60097;55.004;73.344;2022-09-12T15:46:27;112.10;45.03;
69736;PMS5003;60097;55.004;73.344;2022-09-12T15:48:58;109.40;47.00;
69736;PMS5003;60097;55.004;73.344;2022-09-12T15:51:27;112.53;40.40;
69736;PMS5003;60097;55.004;73.344;2022-09-12T15:53:54;90.90;39.53;
69736;PMS5003;60097;55.004;73.344;2022-09-12T15:56:21;98.63;38.57;
69736;PMS5003;60097;55.004;73.344;2022-09-12T15:58:48;115.10;44.50;
69736;PMS5003;60097;55.004;73.344;2022-09-12T16:01:15;103.57;41.78;
69736;PMS5003;60097;55.004;73.344;2022-09-12T16:03:44;87.60;39.35;
69736;PMS5003;60097;55.004;73.344;2022-09-12T16:06:12;86.85;35.25;
69736;PMS5003;60097;55.004;73.344;2022-09-12T16:11:42;91.05;34.20;
69736;PMS5003;60097;55.004;73.344;2022-09-12T16:14:13;71.32;34.88;
69736;PMS5003;60097;55.004;73.344;2022-09-12T16:16:40;73.82;33.92;
69736;PMS5003;60097;55.004;73.344;2022-09-12T16:19:07;81.65;32.22;
69736;PMS5003;60097;55.004;73.344;2022-09-12T16:21:37;68.78;27.40;
69736;PMS5003;60097;55.004;73.344;2022-09-12T16:24:04;70.30;22.27;
69736;PMS5003;60097;55.004;73.344;2022-09-12T16:26:35;56.20;20.60;
69736;PMS5003;60097;55.004;73.344;2022-09-12T16:29:02;64.60;21.08;
69736;PMS5003;60097;55.004;73.344;2022-09-12T16:31:28;52.33;20.15;
69736;PMS5003;60097;55.004;73.344;2022-09-12T16:33:55;48.28;21.25;
69736;PMS5003;60097;55.004;73.344;2022-09-12T16:36:25;68.72;19.77;
69736;PMS5003;60097;55.004;73.344;2022-09-12T16:38:56;79.90;19.73;
69736;PMS5003;60097;55.004;73.344;2022-09-12T16:41:23;54.38;16.35;
69736;PMS5003;60097;55.004;73.344;2022-09-12T16:43:50;46.35;16.48;
69736;PMS5003;60097;55.004;73.344;2022-09-12T16:46:18;43.72;16.05;
69736;PMS5003;60097;55.004;73.344;2022-09-12T16:48:57;29.75;15.82;
69736;PMS5003;60097;55.004;73.344;2022-09-12T16:51:29;48.92;15.98;
69736;PMS5003;60097;55.004;73.344;2022-09-12T16:53:57;48.55;15.05;
69736;PMS5003;60097;55.004;73.344;2022-09-12T16:56:24;55.85;18.90;
69736;PMS5003;60097;55.004;73.344;2022-09-12T16:58:50;38.17;18.23;
69736;PMS5003;60097;55.004;73.344;2022-09-12T17:01:18;49.97;16.70;
69736;PMS5003;60097;55.004;73.344;2022-09-12T17:03:51;39.10;14.63;
69736;PMS5003;60097;55.004;73.344;2022-09-12T17:06:19;45.50;16.23;
69736;PMS5003;60097;55.004;73.344;2022-09-12T17:08:57;37.22;14.00;
69736;PMS5003;60097;55.004;73.344;2022-09-12T17:11:33;36.13;14.40;
69736;PMS5003;60097;55.004;73.344;2022-09-12T17:14:04;66.32;15.95;
69736;PMS5003;60097;55.004;73.344;2022-09-12T17:16:36;56.88;17.67;
69736;PMS5003;60097;55.004;73.344;2022-09-12T17:19:16;64.85;21.83;
69736;PMS5003;60097;55.004;73.344;2022-09-12T17:21:55;53.97;19.95;
69736;PMS5003;60097;55.004;73.344;2022-09-12T17:24:22;38.58;16.05;
69736;PMS5003;60097;55.004;73.344;2022-09-12T17:26:49;65.32;20.10;
69736;PMS5003;60097;55.004;73.344;2022-09-12T17:29:21;56.55;20.60;
69736;PMS5003;60097;55.004;73.344;2022-09-12T17:31:48;76.57;31.00;
69736;PMS5003;60097;55.004;73.344;2022-09-12T17:34:19;52.30;24.17;
69736;PMS5003;60097;55.004;73.344;2022-09-12T17:36:49;63.13;23.55;
69736;PMS5003;60097;55.004;73.344;2022-09-12T17:39:15;66.03;23.20;
69736;PMS5003;60097;55.004;73.344;2022-09-12T17:41:42;39.35;16.08;
69736;PMS5003;60097;55.004;73.344;2022-09-12T17:44:20;38.90;14.60;
69736;PMS5003;60097;55.004;73.344;2022-09-12T17:46:47;27.48;13.70;
69736;PMS5003;60097;55.004;73.344;2022-09-12T17:51:56;45.90;16.15;
69736;PMS5003;60097;55.004;73.344;2022-09-12T17:54:23;38.83;16.75;
69736;PMS5003;60097;55.004;73.344;2022-09-12T17:56:53;36.17;18.15;
69736;PMS5003;60097;55.004;73.344;2022-09-12T17:59:21;41.42;18.88;
69736;PMS5003;60097;55.004;73.344;2022-09-12T18:01:49;49.25;20.35;
69736;PMS5003;60097;55.004;73.344;2022-09-12T18:04:37;48.03;21.35;
69736;PMS5003;60097;55.004;73.344;2022-09-12T18:07:42;53.25;21.65;
69736;PMS5003;60097;55.004;73.344;2022-09-12T18:10:08;50.35;23.63;
69736;PMS5003;60097;55.004;73.344;2022-09-12T18:12:36;64.93;26.25;
69736;PMS5003;60097;55.004;73.344;2022-09-12T18:15:04;58.85;26.73;
69736;PMS5003;60097;55.004;73.344;2022-09-12T18:17:31;77.15;29.58;
69736;PMS5003;60097;55.004;73.344;2022-09-12T18:20:08;81.13;29.53;
69736;PMS5003;60097;55.004;73.344;2022-09-12T18:22:34;65.88;31.63;
69736;PMS5003;60097;55.004;73.344;2022-09-12T18:25:01;54.35;28.90;
69736;PMS5003;60097;55.004;73.344;2022-09-12T18:27:27;67.60;28.23;
69736;PMS5003;60097;55.004;73.344;2022-09-12T18:29:59;69.63;29.92;
69736;PMS5003;60097;55.004;73.344;2022-09-12T18:32:26;70.03;28.65;
69736;PMS5003;60097;55.004;73.344;2022-09-12T18:34:52;65.90;29.40;
69736;PMS5003;60097;55.004;73.344;2022-09-12T18:37:19;67.40;28.80;
69736;PMS5003;60097;55.004;73.344;2022-09-12T18:39:47;57.13;28.02;
69736;PMS5003;60097;55.004;73.344;2022-09-12T18:42:18;49.58;28.30;
69736;PMS5003;60097;55.004;73.344;2022-09-12T18:44:44;78.93;30.55;
69736;PMS5003;60097;55.004;73.344;2022-09-12T18:47:11;63.80;26.38;
69736;PMS5003;60097;55.004;73.344;2022-09-12T18:49:37;57.58;27.35;
69736;PMS5003;60097;55.004;73.344;2022-09-12T18:52:04;67.32;26.88;
69736;PMS5003;60097;55.004;73.344;2022-09-12T18:54:30;50.95;25.58;
69736;PMS5003;60097;55.004;73.344;2022-09-12T18:56:58;51.03;25.63;
69736;PMS5003;60097;55.004;73.344;2022-09-12T18:59:29;77.70;25.83;
69736;PMS5003;60097;55.004;73.344;2022-09-12T19:01:55;44.05;24.70;
69736;PMS5003;60097;55.004;73.344;2022-09-12T19:04:22;47.28;24.95;